sensor_id;sensor_type;location;lat;lon;timestamp;P1;durP1;ratioP1;P2;durP2;ratioP2
7919;SDS011;18778;47.610;9.776;2023-04-07T00:00:29;8.13;;;6.00;;
7919;SDS011;18778;47.610;9.776;2023-04-07T00:02:55;7.83;;;6.23;;
7919;SDS011;18778;47.610;9.776;2023-04-07T00:05:21;7.73;;;6.67;;
7919;SDS011;18778;47.610;9.776;2023-04-07T00:07:47;7.73;;;6.60;;
7919;SDS011;18778;47.610;9.776;2023-04-07T00:10:12;7.23;;;6.20;;
7919;SDS011;18778;47.610;9.776;2023-04-07T00:12:38;7.57;;;6.23;;
7919;SDS011;18778;47.610;9.776;2023-04-07T00:15:07;6.93;;;6.23;;
7919;SDS011;18778;47.610;9.776;2023-04-07T00:17:33;7.53;;;6.47;;
7919;SDS011;18778;47.610;9.776;2023-04-07T00:19:59;7.53;;;6.83;;
7919;SDS011;18778;47.610;9.776;2023-04-07T00:22:25;7.20;;;6.50;;
7919;SDS011;18778;47.610;9.776;2023-04-07T00:24:50;6.80;;;6.10;;
7919;SDS011;18778;47.610;9.776;2023-04-07T00:27:16;7.07;;;6.37;;
7919;SDS011;18778;47.610;9.776;2023-04-07T00:29:41;7.33;;;6.37;;
7919;SDS011;18778;47.610;9.776;2023-04-07T00:32:10;7.97;;;6.00;;
7919;SDS011;18778;47.610;9.776;2023-04-07T00:34:35;7.57;;;6.30;;
7919;SDS011;18778;47.610;9.776;2023-04-07T00:37:01;7.93;;;6.43;;
7919;SDS011;18778;47.610;9.776;2023-04-07T00:39:27;10.30;;;6.63;;
7919;SDS011;18778;47.610;9.776;2023-04-07T00:41:54;7.23;;;5.83;;
7919;SDS011;18778;47.610;9.776;2023-04-07T00:44:20;8.00;;;6.37;;
7919;SDS011;18778;47.610;9.776;2023-04-07T00:46:46;6.60;;;6.00;;
7919;SDS011;18778;47.610;9.776;2023-04-07T00:49:12;7.53;;;6.00;;
7919;SDS011;18778;47.610;9.776;2023-04-07T00:51:38;6.87;;;6.17;;
7919;SDS011;18778;47.610;9.776;2023-04-07T00:54:05;6.93;;;6.07;;
7919;SDS011;18778;47.610;9.776;2023-04-07T00:56:30;5.50;;;5.00;;
7919;SDS011;18778;47.610;9.776;2023-04-07T00:58:56;6.53;;;5.60;;
7919;SDS011;18778;47.610;9.776;2023-04-07T01:01:35;7.47;;;5.53;;
7919;SDS011;18778;47.610;9.776;2023-04-07T01:06:50;8.30;;;5.30;;
7919;SDS011;18778;47.610;9.776;2023-04-07T01:09:22;6.90;;;5.97;;
7919;SDS011;18778;47.610;9.776;2023-04-07T01:12:00;6.23;;;5.67;;
7919;SDS011;18778;47.610;9.776;2023-04-07T01:14:28;6.20;;;5.60;;
7919;SDS011;18778;47.610;9.776;2023-04-07T01:16:58;6.13;;;5.47;;
7919;SDS011;18778;47.610;9.776;2023-04-07T01:22:06;7.40;;;6.00;;
7919;SDS011;18778;47.610;9.776;2023-04-07T01:27:53;6.73;;;5.57;;
7919;SDS011;18778;47.610;9.776;2023-04-07T01:30:30;5.83;;;5.23;;
7919;SDS011;18778;47.610;9.776;2023-04-07T01:32:59;9.17;;;5.97;;
7919;SDS011;18778;47.610;9.776;2023-04-07T01:35:26;7.47;;;5.90;;
7919;SDS011;18778;47.610;9.776;2023-04-07T01:37:55;6.13;;;5.40;;
7919;SDS011;18778;47.610;9.776;2023-04-07T01:40:21;6.63;;;5.37;;
7919;SDS011;18778;47.610;9.776;2023-04-07T01:42:48;7.60;;;5.83;;
7919;SDS011;18778;47.610;9.776;2023-04-07T01:45:15;6.33;;;5.13;;
7919;SDS011;18778;47.610;9.776;2023-04-07T01:47:42;6.17;;;5.57;;
7919;SDS011;18778;47.610;9.776;2023-04-07T01:50:09;6.20;;;5.60;;
7919;SDS011;18778;47.610;9.776;2023-04-07T01:52:36;8.80;;;5.77;;
7919;SDS011;18778;47.610;9.776;2023-04-07T01:55:03;6.10;;;5.30;;
7919;SDS011;18778;47.610;9.776;2023-04-07T01:57:30;6.40;;;5.27;;
7919;SDS011;18778;47.610;9.776;2023-04-07T01:59:55;5.83;;;5.33;;
7919;SDS011;18778;47.610;9.776;2023-04-07T02:02:21;6.93;;;5.60;;
7919;SDS011;18778;47.610;9.776;2023-04-07T02:04:54;7.13;;;5.10;;
7919;SDS011;18778;47.610;9.776;2023-04-07T02:07:41;6.97;;;6.13;;
7919;SDS011;18778;47.610;9.776;2023-04-07T02:10:16;7.13;;;5.50;;
7919;SDS011;18778;47.610;9.776;2023-04-07T02:12:43;5.57;;;5.07;;
7919;SDS011;18778;47.610;9.776;2023-04-07T02:15:11;5.53;;;5.00;;
7919;SDS011;18778;47.610;9.776;2023-04-07T02:17:38;6.53;;;5.30;;
7919;SDS011;18778;47.610;9.776;2023-04-07T02:20:06;7.53;;;5.30;;
7919;SDS011;18778;47.610;9.776;2023-04-07T02:22:33;6.63;;;5.40;;
7919;SDS011;18778;47.610;9.776;2023-04-07T02:24:59;5.33;;;4.80;;
7919;SDS011;18778;47.610;9.776;2023-04-07T02:27:25;5.53;;;4.90;;
7919;SDS011;18778;47.610;9.776;2023-04-07T02:29:51;5.83;;;5.00;;
7919;SDS011;18778;47.610;9.776;2023-04-07T02:32:18;6.07;;;4.83;;
7919;SDS011;18778;47.610;9.776;2023-04-07T02:34:44;6.23;;;5.53;;
7919;SDS011;18778;47.610;9.776;2023-04-07T02:37:10;6.67;;;6.07;;
7919;SDS011;18778;47.610;9.776;2023-04-07T02:39:36;7.63;;;5.57;;
7919;SDS011;18778;47.610;9.776;2023-04-07T02:42:01;6.87;;;5.37;;
7919;SDS011;18778;47.610;9.776;2023-04-07T02:44:27;5.70;;;5.20;;
7919;SDS011;18778;47.610;9.776;2023-04-07T02:46:53;5.43;;;4.87;;
7919;SDS011;18778;47.610;9.776;2023-04-07T02:49:19;8.10;;;6.63;;
7919;SDS011;18778;47.610;9.776;2023-04-07T02:51:44;5.90;;;5.27;;
7919;SDS011;18778;47.610;9.776;2023-04-07T02:54:11;6.93;;;5.50;;
7919;SDS011;18778;47.610;9.776;2023-04-07T02:56:36;6.87;;;5.57;;
7919;SDS011;18778;47.610;9.776;2023-04-07T02:59:02;5.33;;;4.60;;
7919;SDS011;18778;47.610;9.776;2023-04-07T03:01:28;5.67;;;5.00;;
7919;SDS011;18778;47.610;9.776;2023-04-07T03:03:53;6.97;;;5.40;;
7919;SDS011;18778;47.610;9.776;2023-04-07T03:06:19;5.50;;;4.70;;
7919;SDS011;18778;47.610;9.776;2023-04-07T03:08:45;5.97;;;4.77;;
7919;SDS011;18778;47.610;9.776;2023-04-07T03:11:11;5.27;;;4.77;;
7919;SDS011;18778;47.610;9.776;2023-04-07T03:13:36;6.10;;;5.50;;
7919;SDS011;18778;47.610;9.776;2023-04-07T03:16:02;7.70;;;5.30;;
7919;SDS011;18778;47.610;9.776;2023-04-07T03:18:28;6.40;;;4.80;;
7919;SDS011;18778;47.610;9.776;2023-04-07T03:20:54;6.93;;;5.07;;
7919;SDS011;18778;47.610;9.776;2023-04-07T03:23:20;4.67;;;4.27;;
7919;SDS011;18778;47.610;9.776;2023-04-07T03:25:47;5.83;;;5.23;;
7919;SDS011;18778;47.610;9.776;2023-04-07T03:28:13;5.53;;;5.03;;
7919;SDS011;18778;47.610;9.776;2023-04-07T03:30:39;5.70;;;5.10;;
7919;SDS011;18778;47.610;9.776;2023-04-07T03:33:05;5.00;;;4.50;;
7919;SDS011;18778;47.610;9.776;2023-04-07T03:35:30;5.13;;;4.63;;
7919;SDS011;18778;47.610;9.776;2023-04-07T03:37:56;5.77;;;5.17;;
7919;SDS011;18778;47.610;9.776;2023-04-07T03:40:22;5.57;;;5.07;;
7919;SDS011;18778;47.610;9.776;2023-04-07T03:42:48;5.00;;;4.57;;
7919;SDS011;18778;47.610;9.776;2023-04-07T03:45:14;8.20;;;5.03;;
7919;SDS011;18778;47.610;9.776;2023-04-07T03:47:41;5.10;;;4.60;;
7919;SDS011;18778;47.610;9.776;2023-04-07T03:50:07;6.57;;;5.47;;
7919;SDS011;18778;47.610;9.776;2023-04-07T03:52:33;5.60;;;5.03;;
7919;SDS011;18778;47.610;9.776;2023-04-07T03:54:59;5.53;;;4.87;;
7919;SDS011;18778;47.610;9.776;2023-04-07T03:57:25;8.13;;;5.70;;
7919;SDS011;18778;47.610;9.776;2023-04-07T03:59:51;5.40;;;4.90;;
7919;SDS011;18778;47.610;9.776;2023-04-07T04:02:17;6.07;;;5.40;;
7919;SDS011;18778;47.610;9.776;2023-04-07T04:04:43;5.80;;;5.20;;
7919;SDS011;18778;47.610;9.776;2023-04-07T04:07:09;5.43;;;4.93;;
7919;SDS011;18778;47.610;9.776;2023-04-07T04:09:35;5.90;;;5.30;;
7919;SDS011;18778;47.610;9.776;2023-04-07T04:12:00;12.47;;;5.20;;
7919;SDS011;18778;47.610;9.776;2023-04-07T04:14:26;5.43;;;4.93;;
7919;SDS011;18778;47.610;9.776;2023-04-07T04:16:53;7.40;;;5.63;;
7919;SDS011;18778;47.610;9.776;2023-04-07T04:19:19;5.73;;;4.97;;
7919;SDS011;18778;47.610;9.776;2023-04-07T04:21:44;7.00;;;4.93;;
7919;SDS011;18778;47.610;9.776;2023-04-07T04:24:10;5.80;;;4.83;;
7919;SDS011;18778;47.610;9.776;2023-04-07T04:26:36;5.13;;;4.63;;
7919;SDS011;18778;47.610;9.776;2023-04-07T04:29:02;7.07;;;5.00;;
7919;SDS011;18778;47.610;9.776;2023-04-07T04:31:27;5.60;;;5.03;;
7919;SDS011;18778;47.610;9.776;2023-04-07T04:33:53;5.10;;;4.60;;
7919;SDS011;18778;47.610;9.776;2023-04-07T04:36:19;5.43;;;4.87;;
7919;SDS011;18778;47.610;9.776;2023-04-07T04:38:45;7.33;;;5.33;;
7919;SDS011;18778;47.610;9.776;2023-04-07T04:41:10;8.10;;;4.90;;
7919;SDS011;18778;47.610;9.776;2023-04-07T04:43:36;6.17;;;5.57;;
7919;SDS011;18778;47.610;9.776;2023-04-07T04:46:01;6.10;;;5.50;;
7919;SDS011;18778;47.610;9.776;2023-04-07T04:48:27;7.00;;;5.17;;
7919;SDS011;18778;47.610;9.776;2023-04-07T04:50:53;6.13;;;5.53;;
7919;SDS011;18778;47.610;9.776;2023-04-07T04:53:18;6.37;;;5.43;;
7919;SDS011;18778;47.610;9.776;2023-04-07T04:55:44;7.00;;;6.13;;
7919;SDS011;18778;47.610;9.776;2023-04-07T04:58:12;5.43;;;4.73;;
7919;SDS011;18778;47.610;9.776;2023-04-07T05:00:37;5.70;;;5.10;;
7919;SDS011;18778;47.610;9.776;2023-04-07T05:03:03;6.07;;;5.53;;
7919;SDS011;18778;47.610;9.776;2023-04-07T05:05:29;6.17;;;5.37;;
7919;SDS011;18778;47.610;9.776;2023-04-07T05:07:55;6.70;;;5.70;;
7919;SDS011;18778;47.610;9.776;2023-04-07T05:10:20;5.80;;;5.20;;
7919;SDS011;18778;47.610;9.776;2023-04-07T05:12:46;7.27;;;5.57;;
7919;SDS011;18778;47.610;9.776;2023-04-07T05:15:12;6.20;;;5.27;;
7919;SDS011;18778;47.610;9.776;2023-04-07T05:17:39;5.80;;;5.30;;
7919;SDS011;18778;47.610;9.776;2023-04-07T05:20:05;6.50;;;5.27;;
7919;SDS011;18778;47.610;9.776;2023-04-07T05:22:32;6.03;;;5.43;;
7919;SDS011;18778;47.610;9.776;2023-04-07T05:24:58;6.23;;;5.63;;
7919;SDS011;18778;47.610;9.776;2023-04-07T05:27:24;7.77;;;5.13;;
7919;SDS011;18778;47.610;9.776;2023-04-07T05:29:50;5.90;;;5.00;;
7919;SDS011;18778;47.610;9.776;2023-04-07T05:32:17;5.60;;;5.10;;
7919;SDS011;18778;47.610;9.776;2023-04-07T05:34:43;5.43;;;4.93;;
7919;SDS011;18778;47.610;9.776;2023-04-07T05:37:08;5.83;;;4.93;;
7919;SDS011;18778;47.610;9.776;2023-04-07T05:39:34;5.43;;;4.90;;
7919;SDS011;18778;47.610;9.776;2023-04-07T05:42:00;8.27;;;4.90;;
7919;SDS011;18778;47.610;9.776;2023-04-07T05:44:27;5.53;;;4.97;;
7919;SDS011;18778;47.610;9.776;2023-04-07T05:46:52;14.47;;;8.83;;
7919;SDS011;18778;47.610;9.776;2023-04-07T05:49:18;7.60;;;6.80;;
7919;SDS011;18778;47.610;9.776;2023-04-07T05:51:44;10.37;;;7.77;;
7919;SDS011;18778;47.610;9.776;2023-04-07T05:54:10;8.83;;;6.87;;
7919;SDS011;18778;47.610;9.776;2023-04-07T05:56:35;9.50;;;7.73;;
7919;SDS011;18778;47.610;9.776;2023-04-07T05:59:01;9.17;;;7.27;;
7919;SDS011;18778;47.610;9.776;2023-04-07T06:01:27;9.77;;;6.33;;
7919;SDS011;18778;47.610;9.776;2023-04-07T06:03:53;7.47;;;5.77;;
7919;SDS011;18778;47.610;9.776;2023-04-07T06:06:19;5.63;;;5.07;;
7919;SDS011;18778;47.610;9.776;2023-04-07T06:08:45;6.00;;;5.40;;
7919;SDS011;18778;47.610;9.776;2023-04-07T06:11:11;5.90;;;5.30;;
7919;SDS011;18778;47.610;9.776;2023-04-07T06:13:37;6.37;;;5.77;;
7919;SDS011;18778;47.610;9.776;2023-04-07T06:16:03;6.97;;;5.70;;
7919;SDS011;18778;47.610;9.776;2023-04-07T06:18:30;6.60;;;5.90;;
7919;SDS011;18778;47.610;9.776;2023-04-07T06:20:55;7.03;;;6.33;;
7919;SDS011;18778;47.610;9.776;2023-04-07T06:23:21;7.33;;;5.73;;
7919;SDS011;18778;47.610;9.776;2023-04-07T06:25:47;6.53;;;5.30;;
7919;SDS011;18778;47.610;9.776;2023-04-07T06:28:16;10.77;;;5.70;;
7919;SDS011;18778;47.610;9.776;2023-04-07T06:30:42;10.10;;;6.83;;
7919;SDS011;18778;47.610;9.776;2023-04-07T06:33:07;8.00;;;7.20;;
7919;SDS011;18778;47.610;9.776;2023-04-07T06:35:33;8.90;;;7.33;;
7919;SDS011;18778;47.610;9.776;2023-04-07T06:37:59;10.37;;;8.43;;
7919;SDS011;18778;47.610;9.776;2023-04-07T06:40:24;10.33;;;8.23;;
7919;SDS011;18778;47.610;9.776;2023-04-07T06:42:50;13.40;;;9.60;;
7919;SDS011;18778;47.610;9.776;2023-04-07T06:45:18;12.23;;;8.77;;
7919;SDS011;18778;47.610;9.776;2023-04-07T06:47:44;11.13;;;8.70;;
7919;SDS011;18778;47.610;9.776;2023-04-07T06:50:10;15.73;;;10.30;;
7919;SDS011;18778;47.610;9.776;2023-04-07T06:52:35;7.57;;;6.67;;
7919;SDS011;18778;47.610;9.776;2023-04-07T06:55:01;7.30;;;6.23;;
7919;SDS011;18778;47.610;9.776;2023-04-07T06:57:27;6.43;;;5.63;;
7919;SDS011;18778;47.610;9.776;2023-04-07T06:59:53;7.00;;;5.80;;
7919;SDS011;18778;47.610;9.776;2023-04-07T07:02:18;5.70;;;5.20;;
7919;SDS011;18778;47.610;9.776;2023-04-07T07:04:44;6.40;;;5.80;;
7919;SDS011;18778;47.610;9.776;2023-04-07T07:07:10;7.37;;;6.67;;
7919;SDS011;18778;47.610;9.776;2023-04-07T07:09:35;10.50;;;9.20;;
7919;SDS011;18778;47.610;9.776;2023-04-07T07:12:01;8.67;;;7.77;;
7919;SDS011;18778;47.610;9.776;2023-04-07T07:14:27;6.90;;;5.93;;
7919;SDS011;18778;47.610;9.776;2023-04-07T07:16:52;6.00;;;5.40;;
7919;SDS011;18778;47.610;9.776;2023-04-07T07:19:18;5.67;;;5.17;;
7919;SDS011;18778;47.610;9.776;2023-04-07T07:21:44;10.17;;;5.67;;
7919;SDS011;18778;47.610;9.776;2023-04-07T07:24:09;6.23;;;5.63;;
7919;SDS011;18778;47.610;9.776;2023-04-07T07:26:35;7.53;;;5.87;;
7919;SDS011;18778;47.610;9.776;2023-04-07T07:29:01;7.63;;;6.37;;
7919;SDS011;18778;47.610;9.776;2023-04-07T07:31:26;7.33;;;4.90;;
7919;SDS011;18778;47.610;9.776;2023-04-07T07:33:52;6.10;;;5.50;;
7919;SDS011;18778;47.610;9.776;2023-04-07T07:36:17;7.70;;;5.57;;
7919;SDS011;18778;47.610;9.776;2023-04-07T07:38:43;5.60;;;5.10;;
7919;SDS011;18778;47.610;9.776;2023-04-07T07:41:08;6.83;;;5.07;;
7919;SDS011;18778;47.610;9.776;2023-04-07T07:43:34;6.17;;;5.53;;
7919;SDS011;18778;47.610;9.776;2023-04-07T07:46:01;6.03;;;5.07;;
7919;SDS011;18778;47.610;9.776;2023-04-07T07:48:27;5.60;;;5.10;;
7919;SDS011;18778;47.610;9.776;2023-04-07T07:50:52;5.83;;;4.60;;
7919;SDS011;18778;47.610;9.776;2023-04-07T07:53:20;5.17;;;4.67;;
7919;SDS011;18778;47.610;9.776;2023-04-07T07:55:46;5.87;;;5.20;;
7919;SDS011;18778;47.610;9.776;2023-04-07T07:58:13;5.60;;;5.10;;
7919;SDS011;18778;47.610;9.776;2023-04-07T08:00:39;10.70;;;5.07;;
7919;SDS011;18778;47.610;9.776;2023-04-07T08:03:05;5.00;;;4.50;;
7919;SDS011;18778;47.610;9.776;2023-04-07T08:05:30;5.67;;;5.07;;
7919;SDS011;18778;47.610;9.776;2023-04-07T08:07:56;4.60;;;4.20;;
7919;SDS011;18778;47.610;9.776;2023-04-07T08:10:22;5.60;;;5.10;;
7919;SDS011;18778;47.610;9.776;2023-04-07T08:12:49;5.30;;;4.80;;
7919;SDS011;18778;47.610;9.776;2023-04-07T08:15:15;5.20;;;4.70;;
7919;SDS011;18778;47.610;9.776;2023-04-07T08:17:41;5.93;;;5.33;;
7919;SDS011;18778;47.610;9.776;2023-04-07T08:20:07;5.37;;;4.60;;
7919;SDS011;18778;47.610;9.776;2023-04-07T08:22:35;5.10;;;4.60;;
7919;SDS011;18778;47.610;9.776;2023-04-07T08:25:01;5.87;;;4.67;;
7919;SDS011;18778;47.610;9.776;2023-04-07T08:27:26;5.63;;;4.50;;
7919;SDS011;18778;47.610;9.776;2023-04-07T08:29:59;7.10;;;5.47;;
7919;SDS011;18778;47.610;9.776;2023-04-07T08:32:33;5.13;;;4.50;;
7919;SDS011;18778;47.610;9.776;2023-04-07T08:35:05;5.07;;;4.57;;
7919;SDS011;18778;47.610;9.776;2023-04-07T08:37:31;4.93;;;4.53;;
7919;SDS011;18778;47.610;9.776;2023-04-07T08:39:58;6.20;;;4.60;;
7919;SDS011;18778;47.610;9.776;2023-04-07T08:42:26;4.90;;;4.33;;
7919;SDS011;18778;47.610;9.776;2023-04-07T08:44:58;5.47;;;4.97;;
7919;SDS011;18778;47.610;9.776;2023-04-07T08:47:29;6.73;;;4.80;;
7919;SDS011;18778;47.610;9.776;2023-04-07T08:49:59;5.13;;;4.47;;
7919;SDS011;18778;47.610;9.776;2023-04-07T08:52:30;6.77;;;4.63;;
7919;SDS011;18778;47.610;9.776;2023-04-07T08:55:17;8.30;;;4.67;;
7919;SDS011;18778;47.610;9.776;2023-04-07T08:57:43;5.10;;;4.60;;
7919;SDS011;18778;47.610;9.776;2023-04-07T09:00:10;5.30;;;4.80;;
7919;SDS011;18778;47.610;9.776;2023-04-07T09:02:37;5.13;;;4.73;;
7919;SDS011;18778;47.610;9.776;2023-04-07T09:05:10;14.17;;;10.53;;
7919;SDS011;18778;47.610;9.776;2023-04-07T09:07:38;6.77;;;5.70;;
7919;SDS011;18778;47.610;9.776;2023-04-07T09:10:05;5.07;;;4.50;;
7919;SDS011;18778;47.610;9.776;2023-04-07T09:12:32;6.07;;;4.83;;
7919;SDS011;18778;47.610;9.776;2023-04-07T09:14:58;5.23;;;4.23;;
7919;SDS011;18778;47.610;9.776;2023-04-07T09:17:25;5.10;;;4.60;;
7919;SDS011;18778;47.610;9.776;2023-04-07T09:19:52;8.80;;;5.00;;
7919;SDS011;18778;47.610;9.776;2023-04-07T09:22:33;7.13;;;6.27;;
7919;SDS011;18778;47.610;9.776;2023-04-07T09:25:16;5.37;;;4.87;;
7919;SDS011;18778;47.610;9.776;2023-04-07T09:27:58;5.23;;;4.60;;
7919;SDS011;18778;47.610;9.776;2023-04-07T09:30:26;5.40;;;4.90;;
7919;SDS011;18778;47.610;9.776;2023-04-07T09:32:53;6.43;;;5.10;;
7919;SDS011;18778;47.610;9.776;2023-04-07T09:35:19;6.67;;;5.27;;
7919;SDS011;18778;47.610;9.776;2023-04-07T09:38:06;7.23;;;5.20;;
7919;SDS011;18778;47.610;9.776;2023-04-07T09:40:33;5.43;;;4.97;;
7919;SDS011;18778;47.610;9.776;2023-04-07T09:43:00;5.63;;;4.63;;
7919;SDS011;18778;47.610;9.776;2023-04-07T09:45:26;5.23;;;4.73;;
7919;SDS011;18778;47.610;9.776;2023-04-07T09:47:53;15.53;;;10.30;;
7919;SDS011;18778;47.610;9.776;2023-04-07T09:50:29;7.33;;;5.77;;
7919;SDS011;18778;47.610;9.776;2023-04-07T09:52:59;11.93;;;7.50;;
7919;SDS011;18778;47.610;9.776;2023-04-07T09:55:26;5.17;;;4.63;;
7919;SDS011;18778;47.610;9.776;2023-04-07T09:57:53;5.83;;;5.30;;
7919;SDS011;18778;47.610;9.776;2023-04-07T10:00:20;6.80;;;5.83;;
7919;SDS011;18778;47.610;9.776;2023-04-07T10:02:46;19.93;;;13.73;;
7919;SDS011;18778;47.610;9.776;2023-04-07T10:05:13;7.07;;;6.37;;
7919;SDS011;18778;47.610;9.776;2023-04-07T10:07:39;9.30;;;7.70;;
7919;SDS011;18778;47.610;9.776;2023-04-07T10:10:05;8.93;;;7.30;;
7919;SDS011;18778;47.610;9.776;2023-04-07T10:12:38;5.60;;;4.93;;
7919;SDS011;18778;47.610;9.776;2023-04-07T10:15:06;5.97;;;4.80;;
7919;SDS011;18778;47.610;9.776;2023-04-07T10:17:35;5.00;;;4.60;;
7919;SDS011;18778;47.610;9.776;2023-04-07T10:20:01;5.37;;;4.73;;
7919;SDS011;18778;47.610;9.776;2023-04-07T10:22:30;5.03;;;4.40;;
7919;SDS011;18778;47.610;9.776;2023-04-07T10:25:04;4.80;;;4.40;;
7919;SDS011;18778;47.610;9.776;2023-04-07T10:27:34;5.13;;;4.70;;
7919;SDS011;18778;47.610;9.776;2023-04-07T10:30:03;5.50;;;4.40;;
7919;SDS011;18778;47.610;9.776;2023-04-07T10:32:46;6.30;;;4.40;;
7919;SDS011;18778;47.610;9.776;2023-04-07T10:35:12;4.63;;;4.20;;
7919;SDS011;18778;47.610;9.776;2023-04-07T10:37:38;4.47;;;4.07;;
7919;SDS011;18778;47.610;9.776;2023-04-07T10:42:45;4.67;;;3.87;;
7919;SDS011;18778;47.610;9.776;2023-04-07T10:45:11;5.13;;;4.00;;
7919;SDS011;18778;47.610;9.776;2023-04-07T10:50:22;4.93;;;4.53;;
7919;SDS011;18778;47.610;9.776;2023-04-07T10:53:03;4.70;;;4.20;;
7919;SDS011;18778;47.610;9.776;2023-04-07T10:55:45;6.17;;;5.40;;
7919;SDS011;18778;47.610;9.776;2023-04-07T10:58:24;4.30;;;3.90;;
7919;SDS011;18778;47.610;9.776;2023-04-07T11:03:21;4.57;;;4.17;;
7919;SDS011;18778;47.610;9.776;2023-04-07T11:05:48;4.77;;;4.27;;
7919;SDS011;18778;47.610;9.776;2023-04-07T11:08:14;4.40;;;4.00;;
7919;SDS011;18778;47.610;9.776;2023-04-07T11:10:40;4.77;;;4.33;;
7919;SDS011;18778;47.610;9.776;2023-04-07T11:13:11;4.33;;;3.93;;
7919;SDS011;18778;47.610;9.776;2023-04-07T11:15:37;3.97;;;3.60;;
7919;SDS011;18778;47.610;9.776;2023-04-07T11:20:43;3.87;;;3.57;;
7919;SDS011;18778;47.610;9.776;2023-04-07T11:23:13;3.70;;;3.40;;
7919;SDS011;18778;47.610;9.776;2023-04-07T11:25:43;4.00;;;3.60;;
7919;SDS011;18778;47.610;9.776;2023-04-07T11:28:11;3.73;;;3.40;;
7919;SDS011;18778;47.610;9.776;2023-04-07T11:30:38;3.87;;;3.57;;
7919;SDS011;18778;47.610;9.776;2023-04-07T11:33:08;3.47;;;3.00;;
7919;SDS011;18778;47.610;9.776;2023-04-07T11:35:38;5.47;;;3.30;;
7919;SDS011;18778;47.610;9.776;2023-04-07T11:38:15;4.47;;;3.90;;
7919;SDS011;18778;47.610;9.776;2023-04-07T11:40:41;6.80;;;5.57;;
7919;SDS011;18778;47.610;9.776;2023-04-07T11:46:01;6.07;;;5.47;;
7919;SDS011;18778;47.610;9.776;2023-04-07T11:48:32;5.77;;;5.27;;
7919;SDS011;18778;47.610;9.776;2023-04-07T11:50:59;6.37;;;5.57;;
7919;SDS011;18778;47.610;9.776;2023-04-07T11:58:25;5.60;;;5.10;;
7919;SDS011;18778;47.610;9.776;2023-04-07T12:00:57;5.20;;;4.70;;
7919;SDS011;18778;47.610;9.776;2023-04-07T12:03:27;6.90;;;5.63;;
7919;SDS011;18778;47.610;9.776;2023-04-07T12:05:53;5.50;;;5.00;;
7919;SDS011;18778;47.610;9.776;2023-04-07T12:08:19;5.53;;;5.00;;
7919;SDS011;18778;47.610;9.776;2023-04-07T12:10:45;5.57;;;5.07;;
7919;SDS011;18778;47.610;9.776;2023-04-07T12:13:11;6.33;;;5.60;;
7919;SDS011;18778;47.610;9.776;2023-04-07T12:15:38;6.23;;;5.30;;
7919;SDS011;18778;47.610;9.776;2023-04-07T12:18:03;8.10;;;5.30;;
7919;SDS011;18778;47.610;9.776;2023-04-07T12:20:30;7.43;;;5.27;;
7919;SDS011;18778;47.610;9.776;2023-04-07T12:22:56;5.07;;;4.57;;
7919;SDS011;18778;47.610;9.776;2023-04-07T12:25:22;6.27;;;4.83;;
7919;SDS011;18778;47.610;9.776;2023-04-07T12:27:48;5.20;;;4.70;;
7919;SDS011;18778;47.610;9.776;2023-04-07T12:30:14;4.70;;;4.30;;
7919;SDS011;18778;47.610;9.776;2023-04-07T12:32:39;5.77;;;4.77;;
7919;SDS011;18778;47.610;9.776;2023-04-07T12:35:05;5.23;;;4.47;;
7919;SDS011;18778;47.610;9.776;2023-04-07T12:37:31;6.20;;;4.37;;
7919;SDS011;18778;47.610;9.776;2023-04-07T12:39:57;4.87;;;4.20;;
7919;SDS011;18778;47.610;9.776;2023-04-07T12:42:23;6.50;;;4.80;;
7919;SDS011;18778;47.610;9.776;2023-04-07T12:44:49;5.83;;;5.33;;
7919;SDS011;18778;47.610;9.776;2023-04-07T12:47:15;5.30;;;4.80;;
7919;SDS011;18778;47.610;9.776;2023-04-07T12:49:41;5.37;;;4.87;;
7919;SDS011;18778;47.610;9.776;2023-04-07T12:52:07;5.10;;;4.60;;
7919;SDS011;18778;47.610;9.776;2023-04-07T12:54:33;6.40;;;4.77;;
7919;SDS011;18778;47.610;9.776;2023-04-07T12:56:59;5.77;;;5.13;;
7919;SDS011;18778;47.610;9.776;2023-04-07T12:59:24;5.20;;;4.70;;
7919;SDS011;18778;47.610;9.776;2023-04-07T13:01:50;4.93;;;4.53;;
7919;SDS011;18778;47.610;9.776;2023-04-07T13:04:16;5.60;;;4.37;;
7919;SDS011;18778;47.610;9.776;2023-04-07T13:06:42;5.53;;;5.03;;
7919;SDS011;18778;47.610;9.776;2023-04-07T13:09:08;4.87;;;4.40;;
7919;SDS011;18778;47.610;9.776;2023-04-07T13:11:33;4.80;;;4.27;;
7919;SDS011;18778;47.610;9.776;2023-04-07T13:14:00;5.60;;;4.63;;
7919;SDS011;18778;47.610;9.776;2023-04-07T13:16:26;4.83;;;4.30;;
7919;SDS011;18778;47.610;9.776;2023-04-07T13:18:52;4.90;;;4.43;;
7919;SDS011;18778;47.610;9.776;2023-04-07T13:21:17;4.93;;;4.33;;
7919;SDS011;18778;47.610;9.776;2023-04-07T13:23:43;6.93;;;4.80;;
7919;SDS011;18778;47.610;9.776;2023-04-07T13:26:08;4.70;;;4.30;;
7919;SDS011;18778;47.610;9.776;2023-04-07T13:28:35;4.77;;;4.30;;
7919;SDS011;18778;47.610;9.776;2023-04-07T13:31:00;5.40;;;4.80;;
7919;SDS011;18778;47.610;9.776;2023-04-07T13:33:26;7.33;;;4.50;;
7919;SDS011;18778;47.610;9.776;2023-04-07T13:35:51;4.97;;;4.43;;
7919;SDS011;18778;47.610;9.776;2023-04-07T13:38:17;5.03;;;4.40;;
7919;SDS011;18778;47.610;9.776;2023-04-07T13:40:42;4.60;;;4.00;;
7919;SDS011;18778;47.610;9.776;2023-04-07T13:43:08;4.67;;;4.27;;
7919;SDS011;18778;47.610;9.776;2023-04-07T13:45:36;5.43;;;4.17;;
7919;SDS011;18778;47.610;9.776;2023-04-07T13:48:02;6.10;;;4.50;;
7919;SDS011;18778;47.610;9.776;2023-04-07T13:50:28;4.67;;;4.17;;
7919;SDS011;18778;47.610;9.776;2023-04-07T13:52:53;6.60;;;4.23;;
7919;SDS011;18778;47.610;9.776;2023-04-07T13:55:19;5.03;;;4.00;;
7919;SDS011;18778;47.610;9.776;2023-04-07T13:57:45;5.40;;;4.23;;
7919;SDS011;18778;47.610;9.776;2023-04-07T14:00:11;4.60;;;4.20;;
7919;SDS011;18778;47.610;9.776;2023-04-07T14:02:38;5.47;;;4.30;;
7919;SDS011;18778;47.610;9.776;2023-04-07T14:05:03;5.60;;;4.33;;
7919;SDS011;18778;47.610;9.776;2023-04-07T14:07:29;5.00;;;4.50;;
7919;SDS011;18778;47.610;9.776;2023-04-07T14:09:55;4.60;;;4.10;;
7919;SDS011;18778;47.610;9.776;2023-04-07T14:12:22;4.73;;;4.33;;
7919;SDS011;18778;47.610;9.776;2023-04-07T14:14:48;5.60;;;4.93;;
7919;SDS011;18778;47.610;9.776;2023-04-07T14:17:16;7.03;;;4.90;;
7919;SDS011;18778;47.610;9.776;2023-04-07T14:19:42;6.33;;;4.90;;
7919;SDS011;18778;47.610;9.776;2023-04-07T14:22:07;5.10;;;4.70;;
7919;SDS011;18778;47.610;9.776;2023-04-07T14:24:33;5.60;;;5.10;;
7919;SDS011;18778;47.610;9.776;2023-04-07T14:26:58;7.83;;;5.47;;
7919;SDS011;18778;47.610;9.776;2023-04-07T14:29:25;5.67;;;5.17;;
7919;SDS011;18778;47.610;9.776;2023-04-07T14:31:51;6.13;;;5.47;;
7919;SDS011;18778;47.610;9.776;2023-04-07T14:34:17;6.33;;;5.73;;
7919;SDS011;18778;47.610;9.776;2023-04-07T14:36:51;9.03;;;6.43;;
7919;SDS011;18778;47.610;9.776;2023-04-07T14:39:18;5.83;;;5.17;;
7919;SDS011;18778;47.610;9.776;2023-04-07T14:41:44;5.90;;;5.30;;
7919;SDS011;18778;47.610;9.776;2023-04-07T14:44:11;7.63;;;5.97;;
7919;SDS011;18778;47.610;9.776;2023-04-07T14:46:37;8.50;;;6.07;;
7919;SDS011;18778;47.610;9.776;2023-04-07T14:49:03;5.80;;;5.17;;
7919;SDS011;18778;47.610;9.776;2023-04-07T14:51:29;6.50;;;5.20;;
7919;SDS011;18778;47.610;9.776;2023-04-07T14:53:55;4.43;;;4.03;;
7919;SDS011;18778;47.610;9.776;2023-04-07T14:56:21;3.90;;;3.23;;
7919;SDS011;18778;47.610;9.776;2023-04-07T14:58:48;4.10;;;3.57;;
7919;SDS011;18778;47.610;9.776;2023-04-07T15:01:14;3.40;;;3.17;;
7919;SDS011;18778;47.610;9.776;2023-04-07T15:03:40;5.13;;;3.40;;
7919;SDS011;18778;47.610;9.776;2023-04-07T15:06:07;5.03;;;3.47;;
7919;SDS011;18778;47.610;9.776;2023-04-07T15:08:34;3.23;;;2.93;;
7919;SDS011;18778;47.610;9.776;2023-04-07T15:11:02;3.33;;;3.03;;
7919;SDS011;18778;47.610;9.776;2023-04-07T15:13:31;3.83;;;3.53;;
7919;SDS011;18778;47.610;9.776;2023-04-07T15:16:07;8.00;;;4.17;;
7919;SDS011;18778;47.610;9.776;2023-04-07T15:18:34;5.50;;;4.73;;
7919;SDS011;18778;47.610;9.776;2023-04-07T15:21:01;5.50;;;5.00;;
7919;SDS011;18778;47.610;9.776;2023-04-07T15:23:27;6.83;;;4.83;;
7919;SDS011;18778;47.610;9.776;2023-04-07T15:25:52;5.37;;;4.87;;